METAR Data
IDs: Format: Raw Decoded Include TAF

Data at: 0152 UTC 20 Jan 2022

KPUB 200053Z 10011KT 5SM -SN OVC017 M06/M09 A3033 RMK AO2 SNB00 SLP306 P0000 T10611094
KPUB 200003Z 11011KT 6SM -SN OVC015 M05/M08 A3031 RMK AO2 SNB00 P0000 T10501083
KPUB 192353Z 10011KT 7SM OVC014 M05/M08 A3030 RMK AO2 SLP289 I6001 T10501083 11028 21050 51010
KPUB 192253Z AUTO 12009KT 10SM OVC012 M04/M07 A3029 RMK AO2 SLP280 T10441072
KPUB 192226Z AUTO 11008KT 7SM OVC013 M04/M08 A3028 RMK AO2 T10441078
KPUB 192153Z AUTO 14010KT 5SM HZ OVC015 M04/M07 A3028 RMK AO2 SLP275 T10391072
KPUB 192053Z 12009KT 8SM OVC015 M04/M08 A3026 RMK AO2 SLP265 I3001 T10391078 53001
KPUB 192009Z 10009KT 10SM OVC016 M03/M08 A3026 RMK AO2 T10331078
KPUB 191953Z 10011KT 10SM OVC014 M03/M08 A3026 RMK AO2 SLP265 T10331078
KPUB 191908Z 09011KT 9SM OVC011 M03/M07 A3025 RMK AO2 T10331067
KPUB 191853Z 09012KT 5SM BR OVC009 M03/M06 A3025 RMK AO2 CIG 007V011 SLP264 I1001 T10331056
KPUB 191837Z 09012KT 3SM BR OVC009 M03/M06 A3026 RMK AO2 CIG 007V011 I1001 T10331056
KPUB 191824Z 08013KT 2SM R08R/6000VP6000FT BR OVC010 M03/M06 A3025 RMK AO2 I1001 T10331056
KPUB 191753Z 08013KT 5SM HZ OVC012 M03/M06 A3026 RMK AO2 SLP267 T10281061 10006 21028 51028
KPUB 191653Z 12011KT 9SM OVC014 M02/M06 A3024 RMK AO2 SLP256 T10171056
KPUB 191553Z 12010KT 10SM OVC017 M01/M06 A3020 RMK AO2 SLP235 T10111056
KPUB 191453Z 10011KT 7SM OVC012 M01/M04 A3017 RMK AO2 SLP225 T10111044 51028
KPUB 191353Z 12007KT 10SM OVC013 M01/M05 A3013 RMK AO2 SLP204 T10111050
KPUB 191333Z 11007KT 10SM OVC013 M01/M04 A3012 RMK AO2 T10111044
KPUB 191316Z 11008KT 10SM BKN015 M01/M05 A3012 RMK AO2 T10111050
KPUB 191253Z 10008KT 10SM CLR M01/M05 A3011 RMK AO2 SLP196 T10111050
KPUB 191153Z AUTO 08012KT 10SM CLR 01/M06 A3007 RMK AO2 SLP174 T00061061 10044 20006 53019
KPUB 191053Z AUTO 12006KT 10SM CLR 02/M07 A3005 RMK AO2 SLP154 T00171072
KPUB 190953Z AUTO 05010KT 10SM CLR 03/M08 A3003 RMK AO2 SLP142 T00281078
KPUB 190853Z AUTO 03009KT 10SM BKN120 04/M08 A3001 RMK AO2 SLP133 T00441078 50006
KPUB 190753Z AUTO 36008KT 10SM BKN120 03/M09 A3001 RMK AO2 SLP139 T00331089
KPUB 190653Z AUTO 35009KT 10SM CLR 03/M09 A3000 RMK AO2 SLP140 T00281094 401891056
KPUB 190553Z AUTO 36008KT 10SM CLR 03/M11 A2998 RMK AO2 SLP141 T00281106 10128 20017 51031
KPUB 190453Z AUTO 31006KT 10SM CLR 03/M12 A2996 RMK AO2 SLP138 T00331122
KPUB 190353Z 00000KT 10SM CLR 07/M12 A2992 RMK AO2 SLP129 T00671122
KPUB 190253Z AUTO 00000KT 10SM CLR 06/M12 A2988 RMK AO2 SLP126 T00561122 53030
KPUB 190153Z AUTO 07008KT 10SM CLR 09/M11 A2984 RMK AO2 SLP107 T00941111
KPUB 190053Z AUTO 05009KT 10SM CLR 09/M12 A2980 RMK AO2 SLP091 T00941117
KPUB 182353Z AUTO 09006KT 10SM CLR 13/M12 A2978 RMK AO2 SLP074 T01281122 10189 20111 53005
KPUB 182253Z AUTO 34003KT 10SM CLR 18/M12 A2976 RMK AO2 SLP064 T01831122
KPUB 182153Z AUTO VRB04KT 10SM CLR 19/M12 A2975 RMK AO2 SLP057 T01891117
KPUB 182053Z 03007KT 10SM CLR 18/M12 A2976 RMK AO2 SLP064 T01831117 56021
KPUB 181953Z 08004KT 10SM CLR 18/M11 A2977 RMK AO2 SLP067 T01781111
KPUB 181853Z 11003KT 10SM CLR 14/M09 A2979 RMK AO2 SLP075 T01441089
KPUB 181753Z 00000KT 10SM CLR 11/M09 A2983 RMK AO2 SLP093 T01111094 10111 21050 50003
KPUB 181653Z 20003KT 10SM CLR 07/M08 A2984 RMK AO2 SLP102 T00721083
KPUB 181553Z 00000KT 10SM CLR 03/M09 A2983 RMK AO2 SLP105 T00281089
KPUB 181453Z 27005KT 10SM CLR M03/M11 A2982 RMK AO2 SLP112 T10281106 51003
KPUB 181353Z 27006KT 10SM CLR M04/M12 A2982 RMK AO2 SLP107 T10391117